Latest Coastal Weather Observations for Flinders Island Airport

IDT60701

Issued at 5:21 am EST Monday 2 May 2016 (issued every 10 minutes, with the page automatically refreshed every 10 minutes)

About coastal observations | Map of coastal stations | Coastal observations for TAS | Marine services | Other Formats
Station Details ID: 099005 Name: FLINDERS ISLAND AIRPORT Lat: -40.09 Lon: 148.00 Height: 9.0 m
Data from the previous 72 hours. | See also: Recent months at Flinders Island Airport
Date/Time
EST
Temp

°C
Wind Pressure Rain
since 9am
mm
Weather Cloud Vis
km
Sea
Height
m
Swell
Dir
 
Speed
knots
Gust
knots
hPa Trend Height
m
Period
s
Dir
02/05:00am 13.9 W 24 33 1008.4 - 3.8 - Partly cloudy 10 - - - -
02/04:54am 13.8 W 25 35 1008.3 - 3.8 - Partly cloudy 10 - - - -
02/04:30am 13.6 WSW 29 36 1008.1 - 3.8 - Partly cloudy 10 - - - -
02/04:00am 13.6 W 28 39 1008.0 - 3.8 - - 10 - - - -
02/03:43am 13.1 W 29 39 1007.9 - 3.8 - Partly cloudy 10 - - - -
02/03:30am 12.8 WSW 31 39 1008.0 - 3.8 - Partly cloudy 10 - - - -
02/03:16am 13.7 W 27 38 1007.9 - 3.8 - Partly cloudy 10 - - - -
02/03:00am 13.9 W 24 32 1007.9 - 3.8 - Partly cloudy 10 - - - -
02/02:52am 13.8 W 26 36 1007.9 - 3.8 - Partly cloudy 10 - - - -
02/02:30am 13.4 W 27 36 1008.1 - 3.8 - Partly cloudy 10 - - - -
02/02:01am 13.2 W 30 40 1008.2 - 3.8 - Partly cloudy 10 - - - -
02/02:00am 13.1 W 31 40 1008.2 - 3.8 - Partly cloudy 10 - - - -
02/01:37am 12.9 W 26 38 1008.2 - 3.8 - Partly cloudy 10 - - - -
02/01:30am 12.7 W 26 32 1008.0 - 3.8 - Partly cloudy 10 - - - -
02/01:01am 12.4 W 26 36 1008.1 - 3.8 - Partly cloudy 10 - - - -
02/01:00am 12.3 W 26 36 1008.1 - 3.8 - Partly cloudy 10 - - - -
02/12:44am 12.2 W 25 35 1008.3 - 3.4 - Partly cloudy 5 - - - -
02/12:39am 12.5 W 27 35 1008.3 - 3.2 - Partly cloudy 5 - - - -
02/12:30am 13.7 W 26 34 1007.9 - 2.8 - Partly cloudy 10 - - - -
02/12:00am 13.0 W 31 40 1007.8 - 2.8 Recent precip. Mostly cloudy 10 - - - -
 
Date/Time
EST
Temp

°C
Wind Pressure Rain
since 9am
mm
Weather Cloud Vis
km
Sea
Height
m
Swell
Dir
 
Speed
knots
Gust
knots
hPa Trend Height
m
Period
s
Dir
01/11:39pm 13.3 W 32 43 1007.9 - 2.6 - Partly cloudy 10 - - - -
01/11:30pm 13.8 W 30 37 1007.4 - 2.6 - Partly cloudy 10 - - - -
01/11:00pm 12.9 W 31 42 1007.7 - 2.6 - Partly cloudy 10 - - - -
01/10:30pm 14.1 W 33 44 1007.3 - 2.6 - Partly cloudy 10 - - - -
01/10:00pm 14.0 W 31 43 1007.3 - 2.6 - Partly cloudy 10 - - - -
01/09:41pm 14.3 W 36 46 1006.9 - 2.6 - Partly cloudy 10 - - - -
01/09:30pm 14.0 W 36 45 1006.9 - 2.6 - Partly cloudy 10 - - - -
01/09:23pm 14.3 W 35 45 1006.6 - 2.6 - Partly cloudy 10 - - - -
01/09:00pm 14.2 W 34 42 1006.3 - 2.6 - Cloudy 10 - - - -
01/08:32pm 14.3 W 36 46 1005.6 - 2.6 - Partly cloudy 10 - - - -
01/08:30pm 14.3 W 36 44 1005.5 - 2.6 - Partly cloudy 10 - - - -
01/08:01pm 14.1 W 37 49 1004.8 - 2.6 - Partly cloudy 10 - - - -
01/08:00pm 14.2 W 37 45 1004.8 - 2.6 - Partly cloudy 10 - - - -
01/07:30pm 14.1 W 39 50 1004.4 - 2.6 - Partly cloudy 10 - - - -
01/07:00pm 14.2 W 38 50 1004.0 - 2.6 - Partly cloudy 10 - - - -
01/06:32pm 14.1 W 31 43 1003.2 - 2.6 - Partly cloudy 10 - - - -
01/06:30pm 14.1 W 31 40 1003.2 - 2.6 - Partly cloudy 10 - - - -
01/06:00pm 14.1 W 31 46 1003.4 - 2.6 Recent precip. Cloudy 10 - - - -
01/05:41pm 12.9 W 30 42 1003.3 - 2.6 - Partly cloudy 10 - - - -
01/05:30pm 12.8 W 33 47 1003.1 - 2.6 - Partly cloudy 4 - - - -
01/05:22pm 12.2 W 38 48 1003.0 - 2.4 - Partly cloudy 5 - - - -
01/05:00pm 14.1 W 34 44 1002.3 - 2.0 - Partly cloudy 10 - - - -
01/04:37pm 13.7 W 33 44 1001.8 - 2.0 - Partly cloudy 10 - - - -
01/04:30pm 13.5 W 32 42 1001.7 - 2.0 - Partly cloudy 9 - - - -
01/04:19pm 13.0 W 31 47 1001.8 - 2.0 - Partly cloudy 5 - - - -
01/04:00pm 14.7 W 33 44 1001.2 - 1.6 - Partly cloudy 10 - - - -
01/03:30pm 14.9 W 33 43 1000.8 - 1.6 - Partly cloudy 10 - - - -
01/03:17pm 14.9 W 32 44 1000.6 - 1.6 - Partly cloudy 10 - - - -
01/03:07pm 14.1 WNW 33 41 1000.6 - 1.6 - Partly cloudy 10 - - - -
01/03:00pm 13.7 W 33 45 1000.5 - 1.6 Rain Cloudy 8 - - - -
01/02:53pm 13.4 W 37 50 1000.4 - 1.6 - Partly cloudy 5 - - - -
01/02:30pm 14.5 W 31 43 999.9 - 1.2 - Partly cloudy 10 - - - -
01/02:00pm 14.4 WNW 28 44 999.3 - 1.2 - Partly cloudy 10 - - - -
01/01:31pm 15.3 W 32 42 998.9 - 0.8 - Partly cloudy 10 - - - -
01/01:30pm 15.4 W 33 42 999.0 - 0.8 - Partly cloudy 10 - - - -
01/01:20pm 15.2 WNW 37 50 998.9 - 0.8 - Partly cloudy 10 - - - -
01/01:18pm 15.5 WNW 37 50 998.8 - 0.8 - Partly cloudy 10 - - - -
01/01:00pm 15.4 WNW 29 40 998.6 - 0.8 - Partly cloudy 10 - - - -
01/12:59pm 15.3 WNW 29 40 998.7 - 0.8 - Partly cloudy 10 - - - -
01/12:45pm 13.7 NW 25 38 999.0 - 0.8 - Partly cloudy 8 - - - -
01/12:32pm 13.6 NW 21 33 999.1 - 0.8 - Partly cloudy 10 - - - -
01/12:30pm 13.5 NW 20 27 999.2 - 0.8 - Partly cloudy 10 - - - -
01/12:28pm 13.4 NW 20 27 999.2 - 0.8 - Partly cloudy 9 - - - -
01/12:18pm 13.4 NW 21 31 999.3 - 0.6 - Partly cloudy 5 - - - -
01/12:13pm 13.3 NW 25 33 999.1 - 0.6 - Partly cloudy 5 - - - -
01/12:04pm 13.2 NW 21 32 999.8 - 0.2 - Partly cloudy 10 - - - -
01/12:00pm 13.1 NW 21 28 999.8 - 0.2 Recent precip. Cloudy 10 - - - -
01/11:30am 15.9 NW 29 41 999.8 - 0.0 - Partly cloudy 10 - - - -
01/11:00am 13.7 NW 28 39 1000.5 - 0.0 - Partly cloudy 7 - - - -
01/10:42am 16.5 NW 22 42 1000.1 - 0.0 - Partly cloudy 10 - - - -
01/10:32am 16.7 NNW 19 33 999.9 - 0.0 - Partly cloudy 10 - - - -
01/10:30am 17.0 NNW 18 27 999.8 - 0.0 - Partly cloudy 10 - - - -
01/10:11am 17.0 NNW 15 25 1000.1 - 0.0 - Partly cloudy 10 - - - -
01/10:00am 16.7 NNW 13 19 1000.2 - 0.0 - Partly cloudy 10 - - - -
01/09:30am 16.4 N 14 22 1000.3 - 0.0 - Partly cloudy 10 - - - -
01/09:00am 15.3 N 12 17 1000.5 - 4.0 - Mostly clear 10 - - - -
01/08:30am 15.0 N 7 12 1000.3 - 4.0 - - 10 - - - -
01/08:00am 14.3 NNW 5 7 1001.0 - 4.0 - Partly cloudy 10 - - - -
01/07:39am 14.6 NW 14 20 1002.3 - 3.4 - Partly cloudy 6 - - - -
01/07:36am 14.6 NW 16 26 1002.4 - 3.2 - Partly cloudy 6 - - - -
01/07:30am 15.0 NW 19 28 1002.8 - 2.8 - Partly cloudy 6 - - - -
01/07:27am 15.2 NW 19 28 1002.8 - 2.6 - Partly cloudy 5 - - - -
01/07:20am 15.9 NNW 20 37 1002.8 - 2.2 - Partly cloudy 5 - - - -
01/07:19am 15.9 N 20 37 1002.7 - 2.0 - Partly cloudy 6 - - - -
01/07:05am 17.2 N 21 31 1001.9 - 1.2 - Partly cloudy 5 - - - -
01/07:00am 16.5 N 22 30 1002.0 - 0.8 - Partly cloudy 5 - - - -
01/06:30am 19.9 NNE 20 30 1000.8 - 0.0 - Partly cloudy 10 - - - -
01/06:27am 19.9 NNE 20 30 1000.7 - 0.0 - Partly cloudy 10 - - - -
01/06:00am 18.5 NNE 17 22 1001.0 - 0.0 - Cloudy 10 - - - -
01/05:30am 18.3 NNE 16 20 1001.8 - 0.0 - - 10 - - - -
01/05:00am 16.4 NE 10 12 1001.8 - 0.0 - - 10 - - - -
01/04:30am 16.9 NE 11 14 1002.8 - 0.0 - - 10 - - - -
01/04:00am 16.5 NNE 11 14 1003.4 - 0.0 - - 10 - - - -
01/03:30am 17.3 NNE 12 15 1004.1 - 0.0 - - 10 - - - -
01/03:00am 16.4 NE 11 14 1004.6 - 0.0 - - 10 - - - -
01/02:30am 16.3 NE 9 10 1005.2 - 0.0 - Partly cloudy 10 - - - -
01/02:00am 16.1 NE 7 8 1005.7 - 0.0 - Partly cloudy 10 - - - -
01/01:30am 16.6 NE 8 10 1006.4 - 0.0 - - 10 - - - -
01/01:00am 17.6 NE 6 7 1007.1 - 0.0 - Partly cloudy 10 - - - -
01/12:30am 19.2 N 8 11 1007.9 - 0.0 - Partly cloudy 10 - - - -
01/12:00am 18.8 NNE 13 18 1008.4 - 0.0 - Partly cloudy 10 - - - -
 
Date/Time
EST
Temp

°C
Wind Pressure Rain
since 9am
mm
Weather Cloud Vis
km
Sea
Height
m
Swell
Dir
 
Speed
knots
Gust
knots
hPa Trend Height
m
Period
s
Dir
30/11:30pm 19.3 NNE 17 22 1008.9 - 0.0 - Partly cloudy 10 - - - -
30/11:00pm 19.4 NNE 15 19 1009.4 - 0.0 - Partly cloudy 10 - - - -
30/10:30pm 19.3 NNE 15 20 1010.1 - 0.0 - Partly cloudy 10 - - - -
30/10:00pm 19.0 NNE 13 19 1010.4 - 0.0 - Partly cloudy 10 - - - -
30/09:30pm 18.6 NNE 14 17 1010.5 - 0.0 - Partly cloudy 10 - - - -
30/09:00pm 18.6 NNE 13 17 1010.7 - 0.0 - Mostly clear 10 - - - -
30/08:30pm 18.5 NNE 15 18 1010.8 - 0.0 - - 10 - - - -
30/08:00pm 18.4 NNE 14 17 1010.9 - 0.0 - - 10 - - - -
30/07:30pm 18.3 NNE 12 15 1011.2 - 0.0 - - 10 - - - -
30/07:00pm 18.2 NNE 13 17 1011.2 - 0.0 - - 10 - - - -
30/06:30pm 18.1 NE 8 13 1011.3 - 0.0 - Partly cloudy 10 - - - -
30/06:00pm 17.1 NE 9 11 1011.7 - 0.0 - Mostly clear 10 - - - -
30/05:30pm 18.7 NNE 9 11 1011.6 - 0.0 - Partly cloudy 10 - - - -
30/05:00pm 19.6 NNE 10 14 1011.5 - 0.0 - - 10 - - - -
30/04:30pm 20.7 NNE 9 14 1011.6 - 0.0 - Partly cloudy 10 - - - -
30/04:00pm 21.3 NNE 11 14 1011.7 - 0.0 - Partly cloudy 10 - - - -
30/03:30pm 21.5 NNE 12 18 1011.6 - 0.0 - - 10 - - - -
30/03:00pm 22.0 N 13 17 1011.7 - 0.0 - - 10 - - - -
30/02:30pm 21.9 N 14 19 1011.7 - 0.0 - Partly cloudy 10 - - - -
30/02:00pm 23.0 NNW 10 15 1011.8 - 0.0 - Partly cloudy 10 - - - -
30/01:30pm 23.5 N 11 17 1011.9 - 0.0 - - 10 - - - -
30/01:00pm 23.5 NW 11 17 1012.2 - 0.0 - - 10 - - - -
30/12:30pm 22.7 NW 11 18 1012.6 - 0.0 - - 10 - - - -
30/12:00pm 22.1 WNW 14 17 1013.1 - 0.0 - - 10 - - - -
30/11:30am 21.9 NW 13 17 1013.6 - 0.0 - - 10 - - - -
30/11:00am 21.7 NNW 11 19 1013.9 - 0.0 - - 10 - - - -
30/10:30am 21.8 NNW 9 13 1014.1 - 0.0 - - 10 - - - -
30/10:00am 20.9 NW 9 13 1014.4 - 0.0 - - 10 - - - -
30/09:30am 20.3 N 9 13 1014.6 - 0.0 - - 10 - - - -
30/09:00am 19.6 NNW 9 12 1014.8 - 6.2 - - 10 - - - -
30/08:30am 18.9 NNW 7 11 1014.8 - 6.2 - - 10 - - - -
30/08:00am 18.2 NNW 8 10 1014.6 - 6.2 - - 10 - - - -
30/07:30am 17.6 NNW 7 10 1014.5 - 6.2 - - 10 - - - -
30/07:00am 17.3 NNW 8 12 1014.4 - 6.2 - - 10 - - - -
30/06:30am 17.2 NNW 7 10 1014.0 - 6.2 - - 10 - - - -
30/06:00am 17.5 NNW 8 11 1013.9 - 6.2 - Partly cloudy 10 - - - -
30/05:30am 18.0 NNW 8 13 1013.7 - 6.2 - Cloudy 10 - - - -
30/05:00am 18.0 NNW 7 10 1013.8 - 6.2 - Partly cloudy 10 - - - -
30/04:30am 17.9 NNW 8 10 1013.7 - 6.2 - Partly cloudy 10 - - - -
30/04:00am 17.9 NNW 7 10 1013.4 - 6.2 - Partly cloudy 10 - - - -
30/03:30am 17.8 NNW 7 11 1013.4 - 6.2 - Partly cloudy 10 - - - -
30/03:00am 18.0 NNW 8 10 1013.5 - 6.2 - Cloudy 10 - - - -
30/02:30am 17.9 NNW 9 12 1013.6 - 6.2 - Cloudy 10 - - - -
30/02:00am 17.9 NNW 8 13 1013.6 - 6.2 - Partly cloudy 10 - - - -
30/01:30am 17.6 NNW 5 8 1013.6 - 6.2 - Partly cloudy 10 - - - -
30/01:00am 16.7 NW 5 6 1013.5 - 6.2 - Partly cloudy 10 - - - -
30/12:30am 16.4 NW 4 6 1013.4 - 6.2 - Partly cloudy 10 - - - -
30/12:00am 16.6 NW 6 8 1013.5 - 6.2 - Partly cloudy 10 - - - -
 
Date/Time
EST
Temp

°C
Wind Pressure Rain
since 9am
mm
Weather Cloud Vis
km
Sea
Height
m
Swell
Dir
 
Speed
knots
Gust
knots
hPa Trend Height
m
Period
s
Dir
29/11:30pm 17.1 NW 7 9 1013.7 - 6.2 - Partly cloudy 10 - - - -
29/11:00pm 17.3 NW 8 12 1014.0 - 6.2 - Partly cloudy 10 - - - -
29/10:30pm 17.3 NW 10 13 1014.1 - 6.2 - Partly cloudy 10 - - - -
29/10:00pm 17.2 NNW 9 13 1013.9 - 6.2 - Partly cloudy 10 - - - -
29/09:30pm 16.1 N 7 9 1013.9 - 6.2 - Partly cloudy 10 - - - -
29/09:00pm 15.5 N 5 6 1014.0 - 6.2 - Partly cloudy 10 - - - -
29/08:30pm 15.3 NNW 5 6 1013.8 - 6.2 - Partly cloudy 10 - - - -
29/08:00pm 15.8 NW 2 5 1013.6 - 6.2 - Partly cloudy 10 - - - -
29/07:30pm 15.8 NNW 4 5 1013.9 - 6.0 - Partly cloudy 10 - - - -
29/07:00pm 15.9 NW 6 8 1014.2 - 6.0 - Partly cloudy 10 - - - -
29/06:30pm 16.1 NW 8 11 1014.3 - 5.0 - Partly cloudy 8 - - - -
29/06:26pm 16.2 NW 9 14 1014.3 - 5.0 - Partly cloudy 7 - - - -
29/06:00pm 16.2 NW 13 18 1014.3 - 3.6 Rain Cloudy 6 - - - -
29/05:30pm 16.9 WNW 12 19 1014.1 - 2.0 - Partly cloudy 10 - - - -
29/05:11pm 17.1 WNW 7 10 1013.7 - 1.8 - Partly cloudy 10 - - - -
29/05:00pm 17.1 WNW 7 10 1013.7 - 1.6 - Partly cloudy 10 - - - -
29/04:30pm 17.2 WNW 8 12 1013.5 - 1.4 - Partly cloudy 10 - - - -
29/04:00pm 17.4 WNW 8 10 1013.3 - 0.8 - Partly cloudy 10 - - - -
29/03:30pm 18.1 WNW 8 10 1013.8 - 0.4 - Cloudy 10 - - - -
29/03:00pm 18.6 WNW 8 11 1013.4 - 0.4 - Cloudy 10 - - - -
29/02:30pm 19.3 WNW 8 10 1013.5 - 0.4 - Partly cloudy 10 - - - -
29/02:00pm 20.1 WNW 12 17 1013.2 - 0.4 - Partly cloudy 10 - - - -
29/01:30pm 20.4 NW 13 17 1013.0 - 0.4 - Partly cloudy 10 - - - -
29/01:00pm 20.0 NNW 11 17 1013.4 - 0.4 - Partly cloudy 10 - - - -
29/12:30pm 22.9 WNW 10 13 1013.3 - 0.0 - Partly cloudy 10 - - - -
29/12:00pm 24.8 NNW 9 14 1013.2 - 0.0 - Partly cloudy 10 - - - -
29/11:30am 25.5 NNE 16 21 1013.4 - 0.0 - Partly cloudy 10 - - - -
29/11:00am 24.1 NNE 17 22 1013.7 - 0.0 - - 10 - - - -
29/10:30am 23.3 NNE 16 21 1014.4 - 0.0 - - 10 - - - -
29/10:00am 22.5 NNE 18 22 1014.9 - 0.0 - - 10 - - - -
29/09:30am 22.5 NNE 18 26 1015.4 - 0.0 - - 10 - - - -
29/09:00am 22.2 NNE 14 18 1015.5 - 1.6 - - 10 - - - -
29/08:30am 21.9 NNE 15 20 1015.8 - 1.6 - - 10 - - - -
29/08:00am 21.7 NNE 17 22 1016.0 - 1.6 - - 10 - - - -
29/07:30am 20.9 NE 15 18 1015.9 - 1.6 - - 10 - - - -
29/07:00am 19.9 NNE 16 20 1015.9 - 1.6 - Partly cloudy 10 - - - -
29/06:30am 19.5 NNE 12 20 1015.9 - 1.6 - Partly cloudy 10 - - - -
29/06:00am 20.1 N 14 18 1016.1 - 1.6 - Cloudy 10 - - - -
29/05:30am 20.2 NNE 17 22 1015.7 - 1.6 - Partly cloudy 10 - - - -

Other Formats:

Comma delimited format used in spreadsheet applications
http://www.bom.gov.au/fwo/IDT60701/IDT60701.94980.axf

JavaScript Object Notation format (JSON) in row-major order
http://www.bom.gov.au/fwo/IDT60701/IDT60701.94980.json